Time;durP1;ratioP1;P1;durP2;ratioP2;P2;SDS_P1;SDS_P2;PMS_P1;PMS_P2;Temp;Humidity;BMP_temperature;BMP_pressure;BME280_temperature;BME280_humidity;BME280_pressure;Samples;Min_cycle;Max_cycle;Signal;HPM_P1;HPM_P2
2021/03/05 00:02:24;;;;;;;12.48;9.40;;;;;;;;;;5136592;27;20218;-64
2021/03/05 00:04:54;;;;;;;14.00;10.40;;;;;;;;;;5136450;27;20581;-64
2021/03/05 00:07:22;;;;;;;11.82;10.50;;;;;;;;;;5136105;27;20202;-65
2021/03/05 00:09:51;;;;;;;13.07;10.63;;;;;;;;;;5136517;27;20213;-65
2021/03/05 00:12:22;;;;;;;15.30;11.13;;;;;;;;;;5136685;27;20196;-65
2021/03/05 00:14:52;;;;;;;12.13;9.30;;;;;;;;;;5144912;27;20640;-65
2021/03/05 00:17:20;;;;;;;14.27;10.90;;;;;;;;;;5136399;27;20276;-64
2021/03/05 00:19:49;;;;;;;13.57;11.25;;;;;;;;;;5136434;27;20203;-65
2021/03/05 00:22:16;;;;;;;16.10;10.65;;;;;;;;;;5136657;27;20221;-65
2021/03/05 00:24:43;;;;;;;14.48;10.57;;;;;;;;;;5136354;27;20189;-64
2021/03/05 00:27:10;;;;;;;15.10;11.57;;;;;;;;;;5136481;27;20186;-64
2021/03/05 00:29:37;;;;;;;14.38;9.95;;;;;;;;;;5135888;27;20206;-65
2021/03/05 00:32:04;;;;;;;14.25;10.85;;;;;;;;;;5117584;27;20198;-65
2021/03/05 00:34:30;;;;;;;16.58;10.88;;;;;;;;;;5136563;27;20189;-65
2021/03/05 00:36:57;;;;;;;17.23;11.40;;;;;;;;;;5135507;27;20189;-65
2021/03/05 00:39:24;;;;;;;16.88;11.15;;;;;;;;;;5135694;27;20194;-65
2021/03/05 00:41:50;;;;;;;18.33;10.95;;;;;;;;;;5135747;27;20247;-65
2021/03/05 00:44:17;;;;;;;17.75;12.07;;;;;;;;;;5144489;27;20662;-65
2021/03/05 00:46:44;;;;;;;16.98;10.02;;;;;;;;;;5135991;27;20217;-65
2021/03/05 00:49:10;;;;;;;22.42;12.73;;;;;;;;;;5134635;27;20221;-65
2021/03/05 00:51:38;;;;;;;16.35;10.63;;;;;;;;;;5135172;27;20260;-65
2021/03/05 00:54:05;;;;;;;15.27;10.80;;;;;;;;;;5135731;27;20186;-65
2021/03/05 00:56:32;;;;;;;17.30;11.68;;;;;;;;;;5135912;27;20225;-65
2021/03/05 00:58:58;;;;;;;16.85;10.00;;;;;;;;;;5135136;27;20190;-65
2021/03/05 01:01:25;;;;;;;21.83;12.32;;;;;;;;;;5135528;27;20255;-65
2021/03/05 01:03:53;;;;;;;16.95;11.48;;;;;;;;;;5135337;27;20214;-65
2021/03/05 01:06:21;;;;;;;22.40;12.98;;;;;;;;;;5135439;27;20646;-65
2021/03/05 01:08:47;;;;;;;22.00;14.63;;;;;;;;;;5135423;27;20198;-65
2021/03/05 01:11:16;;;;;;;19.77;12.75;;;;;;;;;;5134971;27;20200;-65
2021/03/05 01:13:43;;;;;;;17.80;10.90;;;;;;;;;;5140421;27;20200;-65
2021/03/05 01:16:10;;;;;;;19.40;13.27;;;;;;;;;;5132039;27;20198;-65
2021/03/05 01:18:37;;;;;;;24.35;13.10;;;;;;;;;;5135063;27;20568;-65
2021/03/05 01:21:04;;;;;;;29.30;14.07;;;;;;;;;;5134057;27;20209;-65
2021/03/05 01:23:30;;;;;;;22.65;12.40;;;;;;;;;;5133500;27;20226;-65
2021/03/05 01:25:59;;;;;;;22.10;12.32;;;;;;;;;;5134829;27;20194;-65
2021/03/05 01:28:26;;;;;;;21.88;12.20;;;;;;;;;;5135042;27;20197;-65
2021/03/05 01:30:52;;;;;;;20.52;13.30;;;;;;;;;;5135233;27;20204;-65
2021/03/05 01:33:21;;;;;;;20.58;13.40;;;;;;;;;;5134818;27;20242;-65
2021/03/05 01:35:47;;;;;;;22.30;13.40;;;;;;;;;;5134835;27;20212;-65
2021/03/05 01:38:14;;;;;;;17.65;11.43;;;;;;;;;;5134092;27;20205;-65
2021/03/05 01:40:45;;;;;;;20.00;12.15;;;;;;;;;;5134933;27;20190;-65
2021/03/05 01:43:14;;;;;;;19.95;11.55;;;;;;;;;;5138859;27;20236;-64
2021/03/05 01:45:41;;;;;;;20.02;11.75;;;;;;;;;;5139734;27;20289;-64
2021/03/05 01:48:10;;;;;;;17.92;11.48;;;;;;;;;;5116193;28;20222;-64
2021/03/05 01:50:58;;;;;;;15.65;10.75;;;;;;;;;;5134015;28;20210;-64
2021/03/05 01:53:28;;;;;;;15.45;10.00;;;;;;;;;;5134394;28;20708;-64
2021/03/05 01:55:57;;;;;;;18.70;10.07;;;;;;;;;;5134488;28;20190;-64
2021/03/05 01:58:24;;;;;;;15.40;10.90;;;;;;;;;;5134581;28;20200;-64
2021/03/05 02:00:52;;;;;;;19.05;11.80;;;;;;;;;;5134316;28;20645;-64
2021/03/05 02:03:20;;;;;;;16.10;9.98;;;;;;;;;;5134579;28;20257;-64
2021/03/05 02:05:47;;;;;;;16.33;10.98;;;;;;;;;;5134081;28;20197;-65
2021/03/05 02:08:15;;;;;;;19.85;10.90;;;;;;;;;;5134791;28;20641;-64
2021/03/05 02:10:42;;;;;;;15.57;10.73;;;;;;;;;;5136721;27;20640;-64
2021/03/05 02:13:12;;;;;;;16.10;10.57;;;;;;;;;;5142259;27;20263;-65
2021/03/05 02:15:42;;;;;;;15.43;10.02;;;;;;;;;;5143559;27;20220;-64
2021/03/05 02:18:14;;;;;;;12.02;9.18;;;;;;;;;;5119828;27;20206;-64
2021/03/05 02:20:45;;;;;;;13.45;8.60;;;;;;;;;;5138762;27;20193;-64
2021/03/05 02:23:27;;;;;;;15.27;10.23;;;;;;;;;;5138450;27;20210;-64
2021/03/05 02:26:12;;;;;;;15.07;10.35;;;;;;;;;;5137612;27;20201;-64
2021/03/05 02:29:05;;;;;;;16.05;10.85;;;;;;;;;;5138900;27;20189;-64
2021/03/05 02:31:39;;;;;;;17.83;11.38;;;;;;;;;;5138475;27;20205;-64
2021/03/05 02:34:27;;;;;;;18.33;11.70;;;;;;;;;;5137952;27;20626;-64
2021/03/05 02:36:59;;;;;;;16.98;10.48;;;;;;;;;;5138344;27;20213;-64
2021/03/05 02:39:30;;;;;;;16.50;10.35;;;;;;;;;;5138142;27;20197;-64
2021/03/05 02:42:00;;;;;;;14.65;10.07;;;;;;;;;;5138911;27;20198;-64
2021/03/05 02:44:27;;;;;;;14.50;9.30;;;;;;;;;;5147178;27;20612;-64
2021/03/05 02:46:59;;;;;;;18.73;10.98;;;;;;;;;;5138272;27;20186;-64
2021/03/05 02:49:28;;;;;;;16.42;10.50;;;;;;;;;;5137832;27;20613;-65
2021/03/05 02:51:56;;;;;;;18.30;10.43;;;;;;;;;;5137941;27;20738;-64
2021/03/05 02:54:25;;;;;;;17.48;11.60;;;;;;;;;;5119469;27;20654;-64
2021/03/05 02:56:58;;;;;;;17.92;11.10;;;;;;;;;;5137781;27;20174;-65
2021/03/05 02:59:26;;;;;;;17.75;10.75;;;;;;;;;;5136991;27;20212;-65
2021/03/05 03:01:56;;;;;;;15.73;10.30;;;;;;;;;;5138153;27;20170;-65
2021/03/05 03:04:27;;;;;;;18.00;10.02;;;;;;;;;;5137452;27;20677;-65
2021/03/05 03:06:58;;;;;;;20.42;11.70;;;;;;;;;;5137224;27;20186;-65
2021/03/05 03:09:25;;;;;;;17.30;10.55;;;;;;;;;;5137552;27;20235;-65
2021/03/05 03:11:52;;;;;;;16.08;11.65;;;;;;;;;;5137866;27;20603;-65
2021/03/05 03:14:19;;;;;;;16.73;10.75;;;;;;;;;;5146558;27;20246;-65
2021/03/05 03:16:46;;;;;;;18.35;10.05;;;;;;;;;;5137643;27;20170;-65
2021/03/05 03:19:15;;;;;;;17.30;10.10;;;;;;;;;;5137356;27;20185;-65
2021/03/05 03:21:43;;;;;;;17.75;10.80;;;;;;;;;;5137247;27;20189;-65
2021/03/05 03:24:12;;;;;;;16.00;11.40;;;;;;;;;;5137278;27;20210;-65
2021/03/05 03:26:41;;;;;;;15.57;10.73;;;;;;;;;;5137119;27;20653;-65
2021/03/05 03:29:11;;;;;;;17.42;10.85;;;;;;;;;;5136975;27;20695;-65
2021/03/05 03:31:41;;;;;;;16.67;10.05;;;;;;;;;;5137220;27;20272;-65
2021/03/05 03:34:09;;;;;;;22.95;11.25;;;;;;;;;;5136933;27;20226;-65
2021/03/05 03:36:37;;;;;;;14.60;10.05;;;;;;;;;;5137021;27;20618;-65
2021/03/05 03:39:09;;;;;;;14.75;10.88;;;;;;;;;;5134079;27;20201;-65
2021/03/05 03:41:37;;;;;;;17.98;10.93;;;;;;;;;;5137063;27;20193;-65
2021/03/05 03:44:07;;;;;;;14.55;9.52;;;;;;;;;;5145728;27;20265;-65
2021/03/05 03:46:34;;;;;;;17.35;11.18;;;;;;;;;;5136988;27;20190;-65
2021/03/05 03:49:02;;;;;;;16.85;11.40;;;;;;;;;;5135773;27;20686;-65
2021/03/05 03:51:41;;;;;;;15.18;10.25;;;;;;;;;;5136101;27;20282;-65
2021/03/05 03:54:08;;;;;;;15.38;10.27;;;;;;;;;;5136484;27;20201;-65
2021/03/05 03:56:37;;;;;;;17.00;11.73;;;;;;;;;;5136582;27;20197;-65
2021/03/05 03:59:07;;;;;;;16.23;11.10;;;;;;;;;;5136791;27;20540;-65
2021/03/05 04:01:34;;;;;;;15.10;10.13;;;;;;;;;;5136895;27;20194;-65
2021/03/05 04:04:01;;;;;;;13.63;9.98;;;;;;;;;;5136467;27;20221;-65
2021/03/05 04:06:31;;;;;;;17.35;11.45;;;;;;;;;;5136958;27;20273;-65
2021/03/05 04:09:00;;;;;;;16.33;11.10;;;;;;;;;;5136502;27;20190;-65
2021/03/05 04:11:29;;;;;;;15.27;11.07;;;;;;;;;;5136373;27;20203;-65
2021/03/05 04:13:57;;;;;;;23.02;12.25;;;;;;;;;;5144009;27;20206;-65
2021/03/05 04:16:23;;;;;;;17.13;10.73;;;;;;;;;;5137015;27;20198;-65
2021/03/05 04:18:52;;;;;;;17.92;11.95;;;;;;;;;;5136370;27;20209;-65
2021/03/05 04:21:29;;;;;;;22.45;11.40;;;;;;;;;;5136090;27;20701;-64
2021/03/05 04:23:56;;;;;;;14.55;11.23;;;;;;;;;;5135710;27;20283;-64
2021/03/05 04:26:22;;;;;;;20.58;11.55;;;;;;;;;;5136034;27;20212;-64
2021/03/05 04:28:49;;;;;;;17.95;10.77;;;;;;;;;;5136418;27;20641;-64
2021/03/05 04:31:15;;;;;;;17.70;11.27;;;;;;;;;;5136176;27;20239;-64
2021/03/05 04:33:44;;;;;;;18.73;12.43;;;;;;;;;;5134752;27;20205;-64
2021/03/05 04:36:12;;;;;;;19.15;11.15;;;;;;;;;;5135663;27;20202;-64
2021/03/05 04:38:38;;;;;;;20.13;11.45;;;;;;;;;;5135718;27;20198;-65
2021/03/05 04:41:05;;;;;;;17.50;11.95;;;;;;;;;;5135934;27;20208;-65
2021/03/05 04:43:35;;;;;;;22.52;12.25;;;;;;;;;;5141765;27;20217;-64
2021/03/05 04:46:01;;;;;;;16.40;10.90;;;;;;;;;;5137717;27;20201;-65
2021/03/05 04:48:28;;;;;;;19.17;12.27;;;;;;;;;;5136082;27;20209;-65
2021/03/05 04:50:55;;;;;;;17.85;11.88;;;;;;;;;;5135652;27;20218;-65
2021/03/05 04:53:22;;;;;;;18.02;11.45;;;;;;;;;;5136300;27;20186;-65
2021/03/05 04:55:48;;;;;;;16.90;12.10;;;;;;;;;;5134710;27;20613;-63
2021/03/05 04:58:15;;;;;;;20.42;11.98;;;;;;;;;;5134959;27;20202;-65
2021/03/05 05:00:41;;;;;;;21.55;13.05;;;;;;;;;;5135370;27;20650;-65
2021/03/05 05:03:10;;;;;;;18.13;12.35;;;;;;;;;;5135462;27;20299;-65
2021/03/05 05:05:39;;;;;;;25.90;13.02;;;;;;;;;;5135241;27;20262;-65
2021/03/05 05:08:07;;;;;;;18.33;11.88;;;;;;;;;;5135559;27;20549;-65
2021/03/05 05:10:38;;;;;;;21.17;13.20;;;;;;;;;;5117854;27;20166;-65
2021/03/05 05:13:07;;;;;;;18.08;12.80;;;;;;;;;;5137812;27;20355;-65
2021/03/05 05:15:34;;;;;;;22.15;11.45;;;;;;;;;;5140861;27;20216;-65
2021/03/05 05:18:02;;;;;;;17.10;11.82;;;;;;;;;;5135010;27;20660;-65
2021/03/05 05:20:31;;;;;;;22.60;13.23;;;;;;;;;;5135660;27;20528;-64
2021/03/05 05:22:58;;;;;;;18.02;10.93;;;;;;;;;;5134981;27;20202;-64
2021/03/05 05:25:24;;;;;;;22.90;11.93;;;;;;;;;;5135429;27;20193;-64
2021/03/05 05:27:51;;;;;;;21.38;13.30;;;;;;;;;;5135187;27;20679;-64
2021/03/05 05:30:19;;;;;;;19.17;12.15;;;;;;;;;;5116871;28;20202;-64
2021/03/05 05:32:46;;;;;;;24.38;13.52;;;;;;;;;;5135186;27;20205;-64
2021/03/05 05:35:14;;;;;;;24.75;13.98;;;;;;;;;;5134987;27;20562;-64
2021/03/05 05:37:41;;;;;;;21.70;13.90;;;;;;;;;;5135107;27;20189;-64
2021/03/05 05:40:08;;;;;;;29.35;14.40;;;;;;;;;;5134266;27;20201;-64
2021/03/05 05:42:39;;;;;;;23.35;15.10;;;;;;;;;;5135092;27;20197;-64
2021/03/05 05:45:06;;;;;;;25.83;15.00;;;;;;;;;;5121013;27;20229;-64
2021/03/05 05:47:36;;;;;;;28.52;15.82;;;;;;;;;;5134744;28;20210;-64
2021/03/05 05:50:05;;;;;;;29.90;16.40;;;;;;;;;;5134692;28;20579;-64
2021/03/05 05:52:33;;;;;;;27.50;15.55;;;;;;;;;;5133622;28;20236;-64
2021/03/05 05:55:01;;;;;;;27.90;16.10;;;;;;;;;;5134406;28;20205;-64
2021/03/05 05:57:29;;;;;;;31.48;17.50;;;;;;;;;;5134465;28;20186;-64
2021/03/05 05:59:58;;;;;;;30.20;16.80;;;;;;;;;;5134922;28;20563;-64
2021/03/05 06:02:26;;;;;;;31.38;16.58;;;;;;;;;;5134458;28;20206;-64
2021/03/05 06:04:55;;;;;;;29.27;18.27;;;;;;;;;;5135330;28;20661;-64
2021/03/05 06:07:23;;;;;;;30.88;16.35;;;;;;;;;;5133603;28;20208;-64
2021/03/05 06:09:53;;;;;;;38.85;18.88;;;;;;;;;;5134738;28;20521;-64
2021/03/05 06:12:22;;;;;;;34.35;18.35;;;;;;;;;;5134382;28;20280;-64
2021/03/05 06:14:50;;;;;;;31.15;17.88;;;;;;;;;;5143218;27;20224;-64
2021/03/05 06:17:17;;;;;;;34.00;19.73;;;;;;;;;;5134597;28;20560;-64
2021/03/05 06:19:46;;;;;;;28.73;17.70;;;;;;;;;;5134231;28;20223;-64
2021/03/05 06:22:20;;;;;;;31.75;18.83;;;;;;;;;;5134489;28;20561;-64
2021/03/05 06:24:46;;;;;;;32.42;17.75;;;;;;;;;;5133624;28;20637;-64
2021/03/05 06:27:18;;;;;;;32.35;19.48;;;;;;;;;;5134611;28;20170;-64
2021/03/05 06:29:47;;;;;;;33.80;19.60;;;;;;;;;;5134584;28;20228;-64
2021/03/05 06:32:19;;;;;;;30.60;17.52;;;;;;;;;;5134758;28;20174;-64
2021/03/05 06:34:55;;;;;;;40.05;19.38;;;;;;;;;;5134382;28;20190;-64
2021/03/05 06:37:23;;;;;;;36.83;18.50;;;;;;;;;;5134178;28;20198;-64
2021/03/05 06:40:00;;;;;;;36.85;20.67;;;;;;;;;;5133933;28;20667;-64
2021/03/05 06:42:26;;;;;;;35.72;20.48;;;;;;;;;;5133951;28;20185;-64
2021/03/05 06:44:53;;;;;;;31.25;18.08;;;;;;;;;;5142260;27;20222;-64
2021/03/05 06:47:25;;;;;;;37.13;21.70;;;;;;;;;;5134247;28;20190;-64
2021/03/05 06:49:53;;;;;;;40.72;23.38;;;;;;;;;;5134383;28;20202;-64
2021/03/05 06:52:32;;;;;;;34.83;20.80;;;;;;;;;;5134348;28;20225;-64
2021/03/05 06:55:01;;;;;;;35.40;18.35;;;;;;;;;;5116427;28;20185;-64
2021/03/05 06:57:28;;;;;;;37.75;19.20;;;;;;;;;;5137048;27;20189;-64
2021/03/05 06:59:57;;;;;;;31.55;19.00;;;;;;;;;;5137755;27;20196;-64
2021/03/05 07:02:31;;;;;;;35.17;17.45;;;;;;;;;;5138094;27;20217;-64
2021/03/05 07:05:01;;;;;;;26.58;14.23;;;;;;;;;;5137667;27;20221;-64
2021/03/05 07:07:27;;;;;;;25.58;13.65;;;;;;;;;;5138038;27;20186;-65
2021/03/05 07:09:55;;;;;;;21.23;11.27;;;;;;;;;;5137967;27;20198;-64
2021/03/05 07:12:24;;;;;;;23.00;12.00;;;;;;;;;;5136784;27;20198;-64
2021/03/05 07:15:00;;;;;;;28.52;13.90;;;;;;;;;;5145810;27;20202;-64
2021/03/05 07:17:29;;;;;;;18.63;11.30;;;;;;;;;;5137509;27;20636;-64
2021/03/05 07:19:56;;;;;;;18.45;11.15;;;;;;;;;;5118614;27;20210;-64
2021/03/05 07:22:25;;;;;;;22.38;13.10;;;;;;;;;;5136712;27;20232;-64
2021/03/05 07:24:55;;;;;;;20.52;10.25;;;;;;;;;;5137681;27;20636;-64
2021/03/05 07:27:27;;;;;;;21.50;10.68;;;;;;;;;;5136484;27;20202;-64
2021/03/05 07:29:56;;;;;;;16.13;10.05;;;;;;;;;;5137429;27;20682;-64
2021/03/05 07:32:24;;;;;;;14.40;9.95;;;;;;;;;;5137073;27;20197;-68
2021/03/05 07:34:58;;;;;;;17.13;12.38;;;;;;;;;;5135971;27;21109;-64
2021/03/05 07:37:36;;;;;;;16.67;9.43;;;;;;;;;;5137222;27;20232;-64
2021/03/05 07:40:05;;;;;;;12.60;9.13;;;;;;;;;;5137098;27;20205;-64
2021/03/05 07:42:33;;;;;;;15.20;9.65;;;;;;;;;;5137309;27;20207;-64
2021/03/05 07:45:01;;;;;;;14.50;8.90;;;;;;;;;;5145676;27;20221;-64
2021/03/05 07:47:30;;;;;;;18.25;9.60;;;;;;;;;;5137447;27;20685;-64
2021/03/05 07:50:05;;;;;;;14.15;8.85;;;;;;;;;;5137470;27;20196;-64
2021/03/05 07:52:32;;;;;;;17.85;9.45;;;;;;;;;;5136889;27;20228;-64
2021/03/05 07:54:59;;;;;;;14.48;8.75;;;;;;;;;;5117968;27;20236;-64
2021/03/05 07:57:31;;;;;;;16.13;8.57;;;;;;;;;;5119027;27;20205;-65
2021/03/05 08:00:01;;;;;;;13.23;8.38;;;;;;;;;;5136763;27;20691;-65
2021/03/05 08:02:46;;;;;;;12.57;7.93;;;;;;;;;;5135973;27;20198;-65
2021/03/05 08:05:30;;;;;;;13.52;7.93;;;;;;;;;;5136636;27;20225;-65
2021/03/05 08:08:12;;;;;;;10.98;7.03;;;;;;;;;;5135711;27;20186;-65
2021/03/05 08:10:40;;;;;;;12.55;7.68;;;;;;;;;;5117977;27;20197;-65
2021/03/05 08:13:30;;;;;;;12.35;7.78;;;;;;;;;;5139726;27;20197;-65
2021/03/05 08:16:18;;;;;;;12.10;7.13;;;;;;;;;;5139068;27;20707;-65
2021/03/05 08:18:46;;;;;;;8.48;7.60;;;;;;;;;;5135878;27;20290;-65
2021/03/05 08:21:13;;;;;;;11.02;7.60;;;;;;;;;;5136184;27;20568;-65
2021/03/05 08:24:02;;;;;;;15.57;8.27;;;;;;;;;;5136146;27;20301;-65
2021/03/05 08:27:00;;;;;;;15.40;6.95;;;;;;;;;;5136814;27;20526;-65
2021/03/05 08:29:51;;;;;;;13.45;8.30;;;;;;;;;;5083534;27;20724;-65
2021/03/05 08:32:34;;;;;;;14.18;7.07;;;;;;;;;;5136122;27;20197;-65
2021/03/05 08:35:01;;;;;;;21.17;7.95;;;;;;;;;;5135131;27;20205;-65
2021/03/05 08:37:29;;;;;;;14.70;8.20;;;;;;;;;;5117015;27;20205;-65
2021/03/05 08:40:14;;;;;;;13.20;7.53;;;;;;;;;;5135843;27;20202;-65
2021/03/05 08:42:42;;;;;;;10.00;6.95;;;;;;;;;;5135260;27;20706;-64
2021/03/05 08:45:20;;;;;;;15.98;9.40;;;;;;;;;;5144100;27;20600;-64
2021/03/05 08:47:51;;;;;;;11.45;6.72;;;;;;;;;;5117452;27;20308;-64
2021/03/05 08:50:20;;;;;;;13.60;7.43;;;;;;;;;;5135487;27;20236;-65
2021/03/05 08:52:49;;;;;;;10.35;7.45;;;;;;;;;;5135051;27;20229;-65
2021/03/05 08:55:16;;;;;;;11.63;6.88;;;;;;;;;;5135793;27;20190;-65
2021/03/05 08:57:53;;;;;;;11.82;6.80;;;;;;;;;;5135436;27;20590;-65
2021/03/05 09:00:21;;;;;;;14.10;8.38;;;;;;;;;;5116773;27;20205;-65
2021/03/05 09:02:48;;;;;;;13.95;7.22;;;;;;;;;;5135256;27;20654;-65
2021/03/05 09:05:25;;;;;;;10.95;7.15;;;;;;;;;;5135215;27;20229;-65
2021/03/05 09:07:52;;;;;;;16.75;7.90;;;;;;;;;;5134838;27;20201;-65
2021/03/05 09:10:21;;;;;;;12.85;7.63;;;;;;;;;;5135066;27;20274;-64
2021/03/05 09:12:58;;;;;;;13.55;7.47;;;;;;;;;;5136157;27;20209;-64
2021/03/05 09:15:27;;;;;;;15.98;9.15;;;;;;;;;;5141548;27;20222;-64
2021/03/05 09:17:55;;;;;;;12.48;8.30;;;;;;;;;;5135488;27;20204;-64
2021/03/05 09:20:22;;;;;;;14.20;7.55;;;;;;;;;;5134677;27;20190;-64
2021/03/05 09:22:48;;;;;;;14.13;9.48;;;;;;;;;;5134565;27;20182;-64
2021/03/05 09:25:15;;;;;;;11.15;7.55;;;;;;;;;;5134788;27;20214;-65
2021/03/05 09:27:42;;;;;;;16.95;9.27;;;;;;;;;;5135143;27;20195;-65
2021/03/05 09:30:13;;;;;;;13.65;9.10;;;;;;;;;;5134548;27;20194;-65
2021/03/05 09:32:47;;;;;;;13.13;8.77;;;;;;;;;;5116178;27;20712;-65
2021/03/05 09:35:14;;;;;;;13.80;8.40;;;;;;;;;;5134863;27;20198;-65
2021/03/05 09:37:41;;;;;;;12.27;8.00;;;;;;;;;;5134095;27;20623;-65
2021/03/05 09:40:08;;;;;;;14.95;7.53;;;;;;;;;;5135123;27;20198;-65
2021/03/05 09:42:44;;;;;;;11.48;8.63;;;;;;;;;;5134800;27;20209;-64
2021/03/05 09:45:11;;;;;;;17.73;8.43;;;;;;;;;;5143065;27;20233;-64
2021/03/05 09:47:50;;;;;;;12.18;7.82;;;;;;;;;;5135118;27;20206;-64
2021/03/05 09:50:21;;;;;;;16.23;7.55;;;;;;;;;;5134331;28;20240;-64
2021/03/05 09:52:50;;;;;;;20.85;8.35;;;;;;;;;;5134683;28;20260;-64
2021/03/05 09:55:30;;;;;;;17.50;8.35;;;;;;;;;;5134539;28;20205;-64
2021/03/05 09:58:09;;;;;;;20.27;9.88;;;;;;;;;;5135400;28;20201;-64
2021/03/05 10:00:38;;;;;;;17.10;9.00;;;;;;;;;;5134457;28;20239;-64
2021/03/05 10:03:06;;;;;;;13.85;7.80;;;;;;;;;;5133895;28;20664;-64
2021/03/05 10:05:42;;;;;;;16.80;9.95;;;;;;;;;;5134388;28;20197;-64
2021/03/05 10:08:29;;;;;;;19.35;8.95;;;;;;;;;;5134436;28;20194;-64
2021/03/05 10:10:55;;;;;;;17.83;8.52;;;;;;;;;;5134759;28;20198;-64
2021/03/05 10:13:22;;;;;;;19.98;10.45;;;;;;;;;;5139569;27;20208;-64
2021/03/05 10:15:52;;;;;;;14.70;9.32;;;;;;;;;;5138648;27;20200;-65
2021/03/05 10:18:22;;;;;;;18.30;8.63;;;;;;;;;;5134939;28;20196;-64
2021/03/05 10:20:52;;;;;;;15.75;9.10;;;;;;;;;;5134929;28;20198;-65
2021/03/05 10:23:23;;;;;;;17.65;10.55;;;;;;;;;;5134232;28;20541;-64
2021/03/05 10:25:50;;;;;;;28.17;10.90;;;;;;;;;;5133725;28;20243;-64
2021/03/05 10:28:25;;;;;;;28.65;10.98;;;;;;;;;;5127340;28;20577;-64
2021/03/05 10:30:54;;;;;;;19.40;11.02;;;;;;;;;;5114922;28;20645;-64
2021/03/05 10:33:40;;;;;;;17.83;11.40;;;;;;;;;;5136248;27;20190;-64
2021/03/05 10:36:08;;;;;;;16.90;9.35;;;;;;;;;;5137761;27;20198;-64
2021/03/05 10:38:44;;;;;;;22.45;9.75;;;;;;;;;;5137853;27;20190;-65
2021/03/05 10:41:11;;;;;;;17.83;10.35;;;;;;;;;;5117400;27;20205;-64
2021/03/05 10:43:39;;;;;;;21.58;10.55;;;;;;;;;;5129743;27;20201;-64
2021/03/05 10:46:08;;;;;;;16.05;8.45;;;;;;;;;;5136508;27;20193;-66
2021/03/05 10:48:35;;;;;;;20.40;11.60;;;;;;;;;;5137146;27;20214;-64
2021/03/05 10:51:02;;;;;;;13.63;9.73;;;;;;;;;;5137888;27;20712;-64
2021/03/05 10:53:28;;;;;;;21.08;12.75;;;;;;;;;;5137464;27;20259;-64
2021/03/05 10:55:56;;;;;;;19.55;11.32;;;;;;;;;;5138198;27;20565;-64
2021/03/05 10:58:27;;;;;;;19.58;9.57;;;;;;;;;;5137467;27;20174;-65
2021/03/05 11:00:54;;;;;;;20.17;11.55;;;;;;;;;;5137687;27;20198;-64
2021/03/05 11:03:21;;;;;;;21.10;11.55;;;;;;;;;;5137419;27;20664;-64
2021/03/05 11:05:47;;;;;;;19.73;11.38;;;;;;;;;;5136761;27;20222;-63
2021/03/05 11:08:17;;;;;;;18.77;11.13;;;;;;;;;;5136909;27;20540;-64
2021/03/05 11:10:47;;;;;;;12.50;9.43;;;;;;;;;;5135537;27;20190;-64
2021/03/05 11:13:14;;;;;;;13.65;9.95;;;;;;;;;;5113898;27;20641;-64
2021/03/05 11:15:40;;;;;;;18.75;11.05;;;;;;;;;;5116088;27;20649;-63
2021/03/05 11:18:07;;;;;;;21.30;10.18;;;;;;;;;;5136989;27;20190;-64
2021/03/05 11:20:38;;;;;;;20.27;10.75;;;;;;;;;;5119198;27;20193;-64
2021/03/05 11:23:09;;;;;;;20.67;9.73;;;;;;;;;;5136651;27;20202;-65
2021/03/05 11:25:40;;;;;;;14.25;10.25;;;;;;;;;;5136731;27;20236;-64
2021/03/05 11:28:06;;;;;;;21.02;9.20;;;;;;;;;;5137232;27;20250;-64
2021/03/05 11:30:35;;;;;;;15.43;9.57;;;;;;;;;;5137529;27;20208;-64
2021/03/05 11:33:02;;;;;;;13.13;10.60;;;;;;;;;;5138004;27;20198;-64
2021/03/05 11:35:32;;;;;;;13.60;10.02;;;;;;;;;;5137005;27;20190;-64
2021/03/05 11:38:00;;;;;;;15.18;10.25;;;;;;;;;;5137119;27;20610;-63
2021/03/05 11:40:26;;;;;;;15.45;9.68;;;;;;;;;;5136372;27;20209;-64
2021/03/05 11:42:53;;;;;;;13.00;9.70;;;;;;;;;;5138324;27;20197;-64
2021/03/05 11:45:23;;;;;;;18.02;11.13;;;;;;;;;;5143568;27;20245;-63
2021/03/05 11:47:50;;;;;;;16.90;11.70;;;;;;;;;;5136496;27;20222;-64
2021/03/05 11:50:17;;;;;;;13.82;10.23;;;;;;;;;;5136697;27;20190;-65
2021/03/05 11:52:44;;;;;;;21.90;11.43;;;;;;;;;;5136219;27;20270;-64
2021/03/05 11:55:14;;;;;;;20.92;10.70;;;;;;;;;;5136482;27;20233;-64
2021/03/05 11:57:41;;;;;;;19.45;11.07;;;;;;;;;;5136614;27;20206;-66
2021/03/05 12:00:08;;;;;;;17.85;9.25;;;;;;;;;;5136241;27;20194;-65
2021/03/05 12:02:35;;;;;;;10.65;8.43;;;;;;;;;;5135720;27;20205;-65
2021/03/05 12:05:04;;;;;;;12.38;8.55;;;;;;;;;;5136012;27;20228;-65
2021/03/05 12:07:31;;;;;;;18.98;10.68;;;;;;;;;;5136769;27;20208;-65
2021/03/05 12:10:05;;;;;;;18.02;9.15;;;;;;;;;;5136389;27;20261;-65
2021/03/05 12:12:32;;;;;;;12.13;8.77;;;;;;;;;;5136212;27;20204;-64
2021/03/05 12:15:00;;;;;;;10.85;7.75;;;;;;;;;;5145041;27;20547;-65
2021/03/05 12:17:28;;;;;;;15.38;9.98;;;;;;;;;;5136103;27;20653;-65
2021/03/05 12:19:54;;;;;;;14.13;10.30;;;;;;;;;;5136241;27;20200;-64
2021/03/05 12:22:23;;;;;;;12.50;9.43;;;;;;;;;;5136165;27;20193;-65
2021/03/05 12:24:50;;;;;;;12.18;9.20;;;;;;;;;;5136242;27;20222;-64
2021/03/05 12:27:24;;;;;;;15.98;9.85;;;;;;;;;;5136443;27;20622;-65
2021/03/05 12:29:52;;;;;;;13.00;8.80;;;;;;;;;;5135884;27;20204;-65
2021/03/05 12:32:18;;;;;;;17.35;10.60;;;;;;;;;;5135743;27;20275;-65
2021/03/05 12:34:46;;;;;;;18.30;9.90;;;;;;;;;;5135579;27;20217;-65
2021/03/05 12:37:14;;;;;;;14.48;9.98;;;;;;;;;;5135855;27;20198;-65
2021/03/05 12:39:41;;;;;;;16.77;10.50;;;;;;;;;;5135092;27;20251;-65
2021/03/05 12:42:08;;;;;;;16.48;9.80;;;;;;;;;;5135836;27;20284;-65
2021/03/05 12:44:35;;;;;;;14.13;10.65;;;;;;;;;;5109421;27;20221;-65
2021/03/05 12:47:01;;;;;;;18.02;11.32;;;;;;;;;;5135634;27;20198;-65
2021/03/05 12:49:28;;;;;;;15.73;10.38;;;;;;;;;;5135797;27;20635;-66
2021/03/05 12:52:05;;;;;;;16.98;11.10;;;;;;;;;;5133887;27;20233;-65
2021/03/05 12:54:33;;;;;;;14.05;10.10;;;;;;;;;;5135171;27;20667;-65
2021/03/05 12:57:02;;;;;;;18.25;12.32;;;;;;;;;;5135724;27;20194;-65
2021/03/05 12:59:29;;;;;;;15.35;10.18;;;;;;;;;;5135417;27;20205;-65
2021/03/05 13:01:57;;;;;;;14.32;10.77;;;;;;;;;;5135938;27;20202;-66
2021/03/05 13:04:24;;;;;;;16.17;11.15;;;;;;;;;;5116800;27;20206;-65
2021/03/05 13:06:51;;;;;;;14.65;10.75;;;;;;;;;;5135440;27;20215;-66
2021/03/05 13:09:17;;;;;;;15.70;10.75;;;;;;;;;;5135474;27;20191;-65
2021/03/05 13:11:44;;;;;;;19.42;10.80;;;;;;;;;;5117301;27;20198;-65
2021/03/05 13:14:13;;;;;;;13.18;9.98;;;;;;;;;;5125841;27;20196;-65
2021/03/05 13:16:40;;;;;;;17.67;10.45;;;;;;;;;;5134612;27;20280;-65
2021/03/05 13:19:06;;;;;;;14.65;11.70;;;;;;;;;;5116205;27;20198;-66
2021/03/05 13:21:36;;;;;;;13.45;10.50;;;;;;;;;;5135013;27;20190;-66
2021/03/05 13:24:03;;;;;;;12.10;9.35;;;;;;;;;;5134478;27;20202;-65
2021/03/05 13:26:33;;;;;;;20.50;10.65;;;;;;;;;;5134923;27;20259;-64
2021/03/05 13:29:00;;;;;;;11.70;8.77;;;;;;;;;;5134840;27;20363;-65
2021/03/05 13:31:28;;;;;;;12.63;9.15;;;;;;;;;;5134811;27;20193;-65
2021/03/05 13:33:54;;;;;;;12.77;8.95;;;;;;;;;;5135338;27;20247;-65
2021/03/05 13:36:22;;;;;;;13.05;8.30;;;;;;;;;;5134114;27;20681;-65
2021/03/05 13:38:50;;;;;;;12.90;9.70;;;;;;;;;;5134113;27;20202;-65
2021/03/05 13:41:17;;;;;;;11.25;9.13;;;;;;;;;;5135096;27;20638;-65
2021/03/05 13:43:44;;;;;;;16.88;10.02;;;;;;;;;;5140760;27;20215;-64
2021/03/05 13:46:14;;;;;;;14.23;8.77;;;;;;;;;;5136908;27;20252;-65
2021/03/05 13:48:49;;;;;;;12.77;8.85;;;;;;;;;;5134456;27;20614;-65
2021/03/05 13:51:15;;;;;;;18.90;9.13;;;;;;;;;;5133928;28;20229;-65
2021/03/05 13:53:42;;;;;;;10.65;7.32;;;;;;;;;;5134276;28;20216;-65
2021/03/05 13:56:14;;;;;;;11.40;8.48;;;;;;;;;;5134130;28;20201;-65
2021/03/05 13:58:40;;;;;;;12.25;8.00;;;;;;;;;;5134462;28;20197;-64
2021/03/05 14:01:07;;;;;;;12.32;8.48;;;;;;;;;;5135443;28;20573;-65
2021/03/05 14:03:34;;;;;;;13.02;8.38;;;;;;;;;;5135000;28;20208;-65
2021/03/05 14:06:01;;;;;;;10.38;7.75;;;;;;;;;;5118043;27;20225;-65
2021/03/05 14:08:28;;;;;;;9.82;7.05;;;;;;;;;;5139090;27;20318;-64
2021/03/05 14:10:55;;;;;;;9.90;7.55;;;;;;;;;;5138786;27;20280;-64
2021/03/05 14:13:22;;;;;;;9.85;7.50;;;;;;;;;;5143579;27;20193;-66
2021/03/05 14:15:50;;;;;;;8.43;6.65;;;;;;;;;;5142305;27;20272;-65
2021/03/05 14:18:17;;;;;;;7.65;6.10;;;;;;;;;;5138855;27;20190;-65
2021/03/05 14:20:43;;;;;;;9.48;6.10;;;;;;;;;;5138457;27;20198;-65
2021/03/05 14:23:12;;;;;;;9.70;6.40;;;;;;;;;;5138287;27;20232;-65
2021/03/05 14:25:40;;;;;;;10.15;6.15;;;;;;;;;;5138455;27;20232;-65
2021/03/05 14:28:07;;;;;;;7.65;6.45;;;;;;;;;;5138222;27;20225;-65
2021/03/05 14:30:37;;;;;;;8.30;5.70;;;;;;;;;;5137938;27;20170;-65
2021/03/05 14:33:04;;;;;;;12.77;8.45;;;;;;;;;;5137600;27;20206;-65
2021/03/05 14:35:30;;;;;;;8.70;7.13;;;;;;;;;;5138328;27;20537;-66